sensor_id;sensor_type;location;lat;lon;timestamp;pressure;altitude;pressure_sealevel;temperature;humidity
42859;BME280;28505;56.970;40.998;2022-08-25T00:02:19;101165.41;;;16.55;96.18
42859;BME280;28505;56.970;40.998;2022-08-25T00:07:42;101191.41;;;16.61;97.54
42859;BME280;28505;56.970;40.998;2022-08-25T00:13:04;101228.56;;;16.84;98.42
42859;BME280;28505;56.970;40.998;2022-08-25T00:18:26;101217.84;;;16.88;97.33
42859;BME280;28505;56.970;40.998;2022-08-25T00:23:48;101226.72;;;16.80;97.81
42859;BME280;28505;56.970;40.998;2022-08-25T00:29:10;101222.19;;;16.61;98.66
42859;BME280;28505;56.970;40.998;2022-08-25T00:34:35;101220.47;;;16.66;99.60
42859;BME280;28505;56.970;40.998;2022-08-25T00:39:58;101221.88;;;16.63;99.10
42859;BME280;28505;56.970;40.998;2022-08-25T00:45:21;101216.72;;;16.48;99.49
42859;BME280;28505;56.970;40.998;2022-08-25T00:50:43;101177.81;;;16.06;100.00
42859;BME280;28505;56.970;40.998;2022-08-25T00:56:06;101211.06;;;16.30;100.00
42859;BME280;28505;56.970;40.998;2022-08-25T01:01:28;101218.03;;;16.36;100.00
42859;BME280;28505;56.970;40.998;2022-08-25T01:06:55;101217.44;;;16.39;100.00
42859;BME280;28505;56.970;40.998;2022-08-25T01:12:19;101153.19;;;15.83;100.00
42859;BME280;28505;56.970;40.998;2022-08-25T01:17:48;101214.78;;;16.21;100.00
42859;BME280;28505;56.970;40.998;2022-08-25T01:23:10;101226.25;;;16.18;100.00
42859;BME280;28505;56.970;40.998;2022-08-25T01:28:33;101218.41;;;16.16;100.00
42859;BME280;28505;56.970;40.998;2022-08-25T01:33:57;101228.25;;;16.12;100.00
42859;BME280;28505;56.970;40.998;2022-08-25T01:39:20;101215.88;;;16.06;100.00
42859;BME280;28505;56.970;40.998;2022-08-25T01:44:44;101217.47;;;15.93;100.00
42859;BME280;28505;56.970;40.998;2022-08-25T01:50:08;101197.78;;;15.82;100.00
42859;BME280;28505;56.970;40.998;2022-08-25T01:55:31;101226.63;;;15.97;100.00
42859;BME280;28505;56.970;40.998;2022-08-25T02:01:17;101202.19;;;15.78;100.00
42859;BME280;28505;56.970;40.998;2022-08-25T02:06:40;101203.22;;;15.82;100.00
42859;BME280;28505;56.970;40.998;2022-08-25T02:12:03;101225.69;;;15.88;100.00
42859;BME280;28505;56.970;40.998;2022-08-25T02:17:26;101217.19;;;15.76;100.00
42859;BME280;28505;56.970;40.998;2022-08-25T02:22:49;101224.88;;;15.87;100.00
42859;BME280;28505;56.970;40.998;2022-08-25T02:28:17;101205.44;;;15.80;100.00
42859;BME280;28505;56.970;40.998;2022-08-25T02:33:39;101209.78;;;15.95;100.00
42859;BME280;28505;56.970;40.998;2022-08-25T02:39:04;101207.00;;;16.00;100.00
42859;BME280;28505;56.970;40.998;2022-08-25T02:44:26;101226.78;;;16.20;100.00
42859;BME280;28505;56.970;40.998;2022-08-25T02:49:48;101205.22;;;16.09;100.00
42859;BME280;28505;56.970;40.998;2022-08-25T02:55:10;101181.31;;;15.93;100.00
42859;BME280;28505;56.970;40.998;2022-08-25T03:00:35;101226.66;;;16.25;100.00
42859;BME280;28505;56.970;40.998;2022-08-25T03:05:58;101220.75;;;16.23;100.00
42859;BME280;28505;56.970;40.998;2022-08-25T03:11:21;101198.13;;;16.08;100.00
42859;BME280;28505;56.970;40.998;2022-08-25T03:16:43;101223.06;;;16.29;100.00
42859;BME280;28505;56.970;40.998;2022-08-25T03:22:06;101219.22;;;16.30;100.00
42859;BME280;28505;56.970;40.998;2022-08-25T03:27:29;101176.28;;;16.27;100.00
42859;BME280;28505;56.970;40.998;2022-08-25T03:32:51;101203.94;;;16.48;100.00
42859;BME280;28505;56.970;40.998;2022-08-25T03:38:13;101190.00;;;16.50;100.00
42859;BME280;28505;56.970;40.998;2022-08-25T03:43:36;101199.69;;;16.70;100.00
42859;BME280;28505;56.970;40.998;2022-08-25T03:49:04;101182.94;;;16.62;100.00
42859;BME280;28505;56.970;40.998;2022-08-25T03:54:25;101204.53;;;16.87;100.00
42859;BME280;28505;56.970;40.998;2022-08-25T03:59:48;101177.47;;;16.90;100.00
42859;BME280;28505;56.970;40.998;2022-08-25T04:05:11;101149.22;;;17.00;100.00
42859;BME280;28505;56.970;40.998;2022-08-25T04:10:36;101200.31;;;17.53;100.00
42859;BME280;28505;56.970;40.998;2022-08-25T04:15:59;101189.53;;;17.70;100.00
42859;BME280;28505;56.970;40.998;2022-08-25T04:26:49;101175.78;;;18.38;100.00
42859;BME280;28505;56.970;40.998;2022-08-25T04:32:12;101172.38;;;19.41;100.00
42859;BME280;28505;56.970;40.998;2022-08-25T04:37:34;101147.41;;;19.78;100.00
42859;BME280;28505;56.970;40.998;2022-08-25T04:42:56;101171.94;;;20.13;100.00
42859;BME280;28505;56.970;40.998;2022-08-25T04:48:18;101177.44;;;20.42;100.00
42859;BME280;28505;56.970;40.998;2022-08-25T04:53:42;101152.31;;;20.70;100.00
42859;BME280;28505;56.970;40.998;2022-08-25T04:59:07;101169.34;;;21.26;100.00
42859;BME280;28505;56.970;40.998;2022-08-25T05:04:29;101167.22;;;21.77;100.00
42859;BME280;28505;56.970;40.998;2022-08-25T05:09:53;101115.34;;;22.09;99.71
42859;BME280;28505;56.970;40.998;2022-08-25T05:15:20;101108.34;;;22.60;95.53
42859;BME280;28505;56.970;40.998;2022-08-25T05:21:16;101144.91;;;23.42;92.72
42859;BME280;28505;56.970;40.998;2022-08-25T05:26:39;101136.38;;;23.75;89.48
42859;BME280;28505;56.970;40.998;2022-08-25T05:32:02;101138.94;;;24.15;87.25
42859;BME280;28505;56.970;40.998;2022-08-25T05:37:24;101124.69;;;24.45;84.04
42859;BME280;28505;56.970;40.998;2022-08-25T05:42:46;101079.88;;;24.32;81.22
42859;BME280;28505;56.970;40.998;2022-08-25T05:48:08;101118.16;;;24.88;79.21
42859;BME280;28505;56.970;40.998;2022-08-25T05:53:30;101136.81;;;25.34;77.95
42859;BME280;28505;56.970;40.998;2022-08-25T05:58:54;101137.69;;;25.57;76.44
42859;BME280;28505;56.970;40.998;2022-08-25T06:04:16;101130.56;;;25.79;75.13
42859;BME280;28505;56.970;40.998;2022-08-25T06:09:43;101141.00;;;26.12;73.32
42859;BME280;28505;56.970;40.998;2022-08-25T06:15:07;101121.16;;;26.30;71.85
42859;BME280;28505;56.970;40.998;2022-08-25T06:20:36;101123.53;;;26.58;69.52
42859;BME280;28505;56.970;40.998;2022-08-25T06:25:58;101134.69;;;26.92;67.30
42859;BME280;28505;56.970;40.998;2022-08-25T06:31:20;101088.00;;;26.90;66.71
42859;BME280;28505;56.970;40.998;2022-08-25T06:36:46;101108.56;;;27.23;64.85
42859;BME280;28505;56.970;40.998;2022-08-25T06:42:09;101098.84;;;27.40;63.10
42859;BME280;28505;56.970;40.998;2022-08-25T06:47:32;101074.78;;;27.44;63.37
42859;BME280;28505;56.970;40.998;2022-08-25T06:52:55;101096.47;;;27.79;62.88
42859;BME280;28505;56.970;40.998;2022-08-25T06:58:17;101108.50;;;27.97;61.15
42859;BME280;28505;56.970;40.998;2022-08-25T07:03:40;101134.44;;;28.27;60.47
42859;BME280;28505;56.970;40.998;2022-08-25T07:09:09;101098.72;;;28.14;59.59
42859;BME280;28505;56.970;40.998;2022-08-25T07:14:32;101086.03;;;28.13;59.15
42859;BME280;28505;56.970;40.998;2022-08-25T07:19:56;101079.00;;;28.30;58.94
42859;BME280;28505;56.970;40.998;2022-08-25T07:25:19;101093.03;;;28.52;57.98
42859;BME280;28505;56.970;40.998;2022-08-25T07:30:42;101119.69;;;28.74;58.13
42859;BME280;28505;56.970;40.998;2022-08-25T07:36:04;101094.31;;;28.72;56.75
42859;BME280;28505;56.970;40.998;2022-08-25T07:41:27;101088.75;;;28.65;56.94
42859;BME280;28505;56.970;40.998;2022-08-25T07:46:50;101103.94;;;29.00;57.78
42859;BME280;28505;56.970;40.998;2022-08-25T07:52:13;101091.72;;;29.15;56.10
42859;BME280;28505;56.970;40.998;2022-08-25T07:57:41;101096.91;;;29.31;55.32
42859;BME280;28505;56.970;40.998;2022-08-25T08:03:05;101104.88;;;29.47;55.84
42859;BME280;28505;56.970;40.998;2022-08-25T08:08:32;101105.31;;;29.63;53.14
42859;BME280;28505;56.970;40.998;2022-08-25T08:13:56;101099.34;;;29.68;53.17
42859;BME280;28505;56.970;40.998;2022-08-25T08:19:18;101102.53;;;29.70;52.92
42859;BME280;28505;56.970;40.998;2022-08-25T08:24:43;101078.69;;;29.55;52.82
42859;BME280;28505;56.970;40.998;2022-08-25T08:30:16;101080.66;;;29.58;52.61
42859;BME280;28505;56.970;40.998;2022-08-25T08:35:41;101089.03;;;29.65;52.74
42859;BME280;28505;56.970;40.998;2022-08-25T08:59:03;101075.50;;;29.31;51.97
42859;BME280;28505;56.970;40.998;2022-08-25T09:04:32;101073.91;;;29.30;51.19
42859;BME280;28505;56.970;40.998;2022-08-25T09:09:57;101049.28;;;29.25;50.55
42859;BME280;28505;56.970;40.998;2022-08-25T09:21:52;101064.78;;;29.37;50.00
42859;BME280;28505;56.970;40.998;2022-08-25T09:33:10;101022.72;;;29.42;49.03
42859;BME280;28505;56.970;40.998;2022-08-25T09:38:44;101051.75;;;29.66;48.10
42859;BME280;28505;56.970;40.998;2022-08-25T09:44:31;101012.78;;;29.52;48.49
42859;BME280;28505;56.970;40.998;2022-08-25T09:50:00;101024.34;;;29.61;48.90
42859;BME280;28505;56.970;40.998;2022-08-25T09:55:29;101038.63;;;29.81;49.01
42859;BME280;28505;56.970;40.998;2022-08-25T10:01:06;101033.47;;;29.83;47.83
42859;BME280;28505;56.970;40.998;2022-08-25T10:06:44;101007.28;;;29.66;47.76
42859;BME280;28505;56.970;40.998;2022-08-25T10:12:18;100996.94;;;29.70;46.74
42859;BME280;28505;56.970;40.998;2022-08-25T10:18:26;101014.38;;;29.89;47.15
42859;BME280;28505;56.970;40.998;2022-08-25T10:23:52;100948.53;;;29.50;47.67
42859;BME280;28505;56.970;40.998;2022-08-25T10:29:35;100935.41;;;29.57;48.02
42859;BME280;28505;56.970;40.998;2022-08-25T10:36:26;100926.69;;;29.66;47.47
42859;BME280;28505;56.970;40.998;2022-08-25T10:53:14;100936.06;;;30.22;44.51
42859;BME280;28505;56.970;40.998;2022-08-25T11:10:56;100934.03;;;30.26;45.79
42859;BME280;28505;56.970;40.998;2022-08-25T11:16:00;100929.22;;;30.34;46.57
42859;BME280;28505;56.970;40.998;2022-08-25T11:22:03;100922.81;;;30.44;46.11
42859;BME280;28505;56.970;40.998;2022-08-25T11:27:30;100919.63;;;30.46;45.80
42859;BME280;28505;56.970;40.998;2022-08-25T11:32:54;100910.88;;;30.47;45.86
42859;BME280;28505;56.970;40.998;2022-08-25T11:38:31;100907.28;;;30.50;46.46
42859;BME280;28505;56.970;40.998;2022-08-25T11:49:49;100898.16;;;30.50;46.44
42859;BME280;28505;56.970;40.998;2022-08-25T12:00:43;100885.34;;;30.63;45.53
42859;BME280;28505;56.970;40.998;2022-08-25T12:06:25;100887.78;;;30.58;45.08
42859;BME280;28505;56.970;40.998;2022-08-25T12:11:55;100874.38;;;30.42;45.43
42859;BME280;28505;56.970;40.998;2022-08-25T12:17:25;100865.31;;;30.27;44.95
42859;BME280;28505;56.970;40.998;2022-08-25T12:22:56;100856.94;;;30.30;45.40
42859;BME280;28505;56.970;40.998;2022-08-25T12:28:34;100846.19;;;30.32;43.53
42859;BME280;28505;56.970;40.998;2022-08-25T12:34:13;100851.66;;;30.47;43.70
42859;BME280;28505;56.970;40.998;2022-08-25T12:45:30;100848.63;;;30.23;44.64
42859;BME280;28505;56.970;40.998;2022-08-25T12:51:04;100829.72;;;29.93;45.20
42859;BME280;28505;56.970;40.998;2022-08-25T12:56:35;100781.81;;;29.46;45.64
42859;BME280;28505;56.970;40.998;2022-08-25T13:13:59;100824.25;;;29.68;46.80
42859;BME280;28505;56.970;40.998;2022-08-25T13:19:26;100825.81;;;29.69;45.65
42859;BME280;28505;56.970;40.998;2022-08-25T13:24:55;100821.44;;;29.75;44.65
42859;BME280;28505;56.970;40.998;2022-08-25T13:30:32;100830.94;;;29.81;44.04
42859;BME280;28505;56.970;40.998;2022-08-25T13:35:56;100816.63;;;29.86;44.40
42859;BME280;28505;56.970;40.998;2022-08-25T13:41:43;100816.22;;;29.88;44.51
42859;BME280;28505;56.970;40.998;2022-08-25T13:47:19;100812.66;;;29.88;44.50
42859;BME280;28505;56.970;40.998;2022-08-25T13:58:29;100799.25;;;29.57;44.33
42859;BME280;28505;56.970;40.998;2022-08-25T14:20:45;100798.53;;;29.35;44.07
42859;BME280;28505;56.970;40.998;2022-08-25T14:26:10;100792.22;;;29.24;44.24
42859;BME280;28505;56.970;40.998;2022-08-25T14:31:35;100764.13;;;29.01;44.80
42859;BME280;28505;56.970;40.998;2022-08-25T14:37:00;100780.34;;;29.06;45.17
42859;BME280;28505;56.970;40.998;2022-08-25T14:42:22;100773.63;;;28.92;45.90
42859;BME280;28505;56.970;40.998;2022-08-25T14:47:46;100755.03;;;28.72;45.95
42859;BME280;28505;56.970;40.998;2022-08-25T14:53:10;100761.34;;;28.58;46.02
42859;BME280;28505;56.970;40.998;2022-08-25T14:58:33;100687.63;;;28.07;46.12
42859;BME280;28505;56.970;40.998;2022-08-25T15:04:20;100699.50;;;27.96;45.52
42859;BME280;28505;56.970;40.998;2022-08-25T15:09:47;100750.19;;;28.08;46.05
42859;BME280;28505;56.970;40.998;2022-08-25T15:15:11;100718.41;;;27.66;46.46
42859;BME280;28505;56.970;40.998;2022-08-25T15:20:35;100730.25;;;27.55;46.40
42859;BME280;28505;56.970;40.998;2022-08-25T15:26:00;100742.84;;;27.42;47.09
42859;BME280;28505;56.970;40.998;2022-08-25T15:31:27;100744.72;;;27.24;47.31
42859;BME280;28505;56.970;40.998;2022-08-25T15:36:51;100739.44;;;27.01;47.65
42859;BME280;28505;56.970;40.998;2022-08-25T15:42:15;100711.50;;;26.61;47.93
42859;BME280;28505;56.970;40.998;2022-08-25T15:47:38;100706.56;;;26.37;48.40
42859;BME280;28505;56.970;40.998;2022-08-25T15:53:00;100726.63;;;26.27;49.07
42859;BME280;28505;56.970;40.998;2022-08-25T15:58:23;100744.25;;;26.11;49.31
42859;BME280;28505;56.970;40.998;2022-08-25T16:03:46;100742.44;;;25.89;50.29
42859;BME280;28505;56.970;40.998;2022-08-25T16:09:10;100732.84;;;25.45;51.84
42859;BME280;28505;56.970;40.998;2022-08-25T16:14:33;100744.44;;;25.28;52.29
42859;BME280;28505;56.970;40.998;2022-08-25T16:19:55;100757.25;;;25.13;53.38
42859;BME280;28505;56.970;40.998;2022-08-25T16:25:17;100706.69;;;24.52;53.44
42859;BME280;28505;56.970;40.998;2022-08-25T16:30:47;100735.78;;;24.50;54.68
42859;BME280;28505;56.970;40.998;2022-08-25T16:36:18;100760.72;;;24.38;55.61
42859;BME280;28505;56.970;40.998;2022-08-25T16:41:41;100757.69;;;24.20;55.98
42859;BME280;28505;56.970;40.998;2022-08-25T16:47:04;100766.44;;;24.06;56.56
42859;BME280;28505;56.970;40.998;2022-08-25T16:52:31;100774.81;;;23.90;57.09
42859;BME280;28505;56.970;40.998;2022-08-25T16:58:11;100773.25;;;23.54;58.99
42859;BME280;28505;56.970;40.998;2022-08-25T17:03:34;100764.91;;;23.31;59.25
42859;BME280;28505;56.970;40.998;2022-08-25T17:08:56;100770.91;;;23.17;59.08
42859;BME280;28505;56.970;40.998;2022-08-25T17:14:18;100775.22;;;23.18;59.66
42859;BME280;28505;56.970;40.998;2022-08-25T17:19:40;100755.75;;;22.91;59.72
42859;BME280;28505;56.970;40.998;2022-08-25T17:25:06;100781.41;;;22.96;60.32
42859;BME280;28505;56.970;40.998;2022-08-25T17:30:30;100694.34;;;22.36;60.71
42859;BME280;28505;56.970;40.998;2022-08-25T17:35:55;100743.56;;;22.57;61.44
42859;BME280;28505;56.970;40.998;2022-08-25T17:41:18;100675.13;;;22.05;61.41
42859;BME280;28505;56.970;40.998;2022-08-25T17:46:42;100716.69;;;22.19;62.13
42859;BME280;28505;56.970;40.998;2022-08-25T17:52:07;100753.91;;;22.32;62.22
42859;BME280;28505;56.970;40.998;2022-08-25T17:57:30;100695.06;;;21.73;62.84
42859;BME280;28505;56.970;40.998;2022-08-25T18:02:52;100713.84;;;21.71;63.53
42859;BME280;28505;56.970;40.998;2022-08-25T18:08:15;100692.56;;;21.40;64.12
42859;BME280;28505;56.970;40.998;2022-08-25T18:13:39;100741.47;;;21.50;64.95
42859;BME280;28505;56.970;40.998;2022-08-25T18:19:03;100741.50;;;21.38;65.54
42859;BME280;28505;56.970;40.998;2022-08-25T18:24:30;100724.81;;;21.19;65.90
42859;BME280;28505;56.970;40.998;2022-08-25T18:29:52;100734.47;;;21.00;66.51
42859;BME280;28505;56.970;40.998;2022-08-25T18:35:16;100737.44;;;20.95;67.18
42859;BME280;28505;56.970;40.998;2022-08-25T18:40:43;100718.97;;;20.80;67.76
42859;BME280;28505;56.970;40.998;2022-08-25T18:46:06;100727.63;;;20.82;67.98
42859;BME280;28505;56.970;40.998;2022-08-25T18:51:30;100717.38;;;20.67;68.65
42859;BME280;28505;56.970;40.998;2022-08-25T18:56:53;100724.88;;;20.70;68.80
42859;BME280;28505;56.970;40.998;2022-08-25T19:02:15;100709.59;;;20.56;69.13
42859;BME280;28505;56.970;40.998;2022-08-25T19:07:42;100694.03;;;20.36;69.81
42859;BME280;28505;56.970;40.998;2022-08-25T19:13:12;100729.66;;;20.48;70.38
42859;BME280;28505;56.970;40.998;2022-08-25T19:18:35;100723.72;;;20.34;70.77
42859;BME280;28505;56.970;40.998;2022-08-25T19:24:23;100768.94;;;20.52;71.46
42859;BME280;28505;56.970;40.998;2022-08-25T19:29:46;100765.47;;;20.43;72.05
42859;BME280;28505;56.970;40.998;2022-08-25T19:35:19;100668.59;;;19.66;72.48
42859;BME280;28505;56.970;40.998;2022-08-25T19:46:42;100661.84;;;19.42;73.41
42859;BME280;28505;56.970;40.998;2022-08-25T19:52:11;100672.38;;;19.52;73.78
42859;BME280;28505;56.970;40.998;2022-08-25T20:21:20;100669.69;;;19.10;76.54
42859;BME280;28505;56.970;40.998;2022-08-25T20:26:59;100721.72;;;19.35;76.80
42859;BME280;28505;56.970;40.998;2022-08-25T20:32:22;100703.41;;;19.14;77.07
42859;BME280;28505;56.970;40.998;2022-08-25T20:38:00;100712.53;;;18.98;77.51
42859;BME280;28505;56.970;40.998;2022-08-25T20:55:50;100734.25;;;18.94;79.04
42859;BME280;28505;56.970;40.998;2022-08-25T21:13:35;100700.06;;;18.41;80.29
42859;BME280;28505;56.970;40.998;2022-08-25T21:49:13;100664.03;;;17.45;83.20
42859;BME280;28505;56.970;40.998;2022-08-25T21:54:48;100679.75;;;17.48;84.14
42859;BME280;28505;56.970;40.998;2022-08-25T22:06:04;100658.13;;;17.17;84.85
42859;BME280;28505;56.970;40.998;2022-08-25T22:18:00;100652.66;;;16.91;85.71
42859;BME280;28505;56.970;40.998;2022-08-25T22:23:24;100691.59;;;17.08;86.51
42859;BME280;28505;56.970;40.998;2022-08-25T22:28:48;100750.31;;;17.41;86.68
42859;BME280;28505;56.970;40.998;2022-08-25T22:34:10;100751.72;;;17.38;86.80
42859;BME280;28505;56.970;40.998;2022-08-25T22:39:32;100760.88;;;17.34;87.69
42859;BME280;28505;56.970;40.998;2022-08-25T22:44:54;100760.19;;;17.19;88.07
42859;BME280;28505;56.970;40.998;2022-08-25T22:50:17;100762.44;;;17.08;88.32
42859;BME280;28505;56.970;40.998;2022-08-25T22:55:42;100763.03;;;16.97;89.37
42859;BME280;28505;56.970;40.998;2022-08-25T23:01:14;100770.28;;;17.01;89.85
42859;BME280;28505;56.970;40.998;2022-08-25T23:06:38;100767.53;;;17.01;88.64
42859;BME280;28505;56.970;40.998;2022-08-25T23:12:00;100767.66;;;16.88;88.88
42859;BME280;28505;56.970;40.998;2022-08-25T23:17:22;100769.56;;;16.78;90.06
42859;BME280;28505;56.970;40.998;2022-08-25T23:22:44;100759.03;;;16.63;90.89
42859;BME280;28505;56.970;40.998;2022-08-25T23:28:09;100735.72;;;16.39;91.95
42859;BME280;28505;56.970;40.998;2022-08-25T23:33:32;100774.41;;;16.59;92.52
42859;BME280;28505;56.970;40.998;2022-08-25T23:38:54;100754.34;;;16.46;93.01
42859;BME280;28505;56.970;40.998;2022-08-25T23:44:17;100686.59;;;16.05;92.60
42859;BME280;28505;56.970;40.998;2022-08-25T23:49:39;100686.38;;;15.93;93.38
42859;BME280;28505;56.970;40.998;2022-08-25T23:55:02;100752.56;;;16.42;93.52
